sensor_id;sensor_type;location;lat;lon;timestamp;temperature;humidity
8953;DHT22;4511;50.890;8.054;2023-02-01T00:01:25;4.30;99.90
8953;DHT22;4511;50.890;8.054;2023-02-01T00:03:53;4.30;99.90
8953;DHT22;4511;50.890;8.054;2023-02-01T00:06:19;4.30;99.90
8953;DHT22;4511;50.890;8.054;2023-02-01T00:08:46;4.30;99.90
8953;DHT22;4511;50.890;8.054;2023-02-01T00:11:12;4.40;99.90
8953;DHT22;4511;50.890;8.054;2023-02-01T00:13:39;4.40;99.90
8953;DHT22;4511;50.890;8.054;2023-02-01T00:16:07;4.40;99.90
8953;DHT22;4511;50.890;8.054;2023-02-01T00:18:34;4.40;99.90
8953;DHT22;4511;50.890;8.054;2023-02-01T00:21:02;4.40;99.90
8953;DHT22;4511;50.890;8.054;2023-02-01T00:23:31;4.40;99.90
8953;DHT22;4511;50.890;8.054;2023-02-01T00:25:59;4.40;99.90
8953;DHT22;4511;50.890;8.054;2023-02-01T00:28:26;4.50;99.90
8953;DHT22;4511;50.890;8.054;2023-02-01T00:30:55;4.50;99.90
8953;DHT22;4511;50.890;8.054;2023-02-01T00:33:22;4.50;99.90
8953;DHT22;4511;50.890;8.054;2023-02-01T00:35:49;4.50;99.90
8953;DHT22;4511;50.890;8.054;2023-02-01T00:38:16;4.50;99.90
8953;DHT22;4511;50.890;8.054;2023-02-01T00:40:43;4.50;99.90
8953;DHT22;4511;50.890;8.054;2023-02-01T00:43:10;4.50;99.90
8953;DHT22;4511;50.890;8.054;2023-02-01T00:45:36;4.60;99.90
8953;DHT22;4511;50.890;8.054;2023-02-01T00:48:03;4.60;99.90
8953;DHT22;4511;50.890;8.054;2023-02-01T00:50:29;4.60;99.90
8953;DHT22;4511;50.890;8.054;2023-02-01T00:52:56;4.60;99.90
8953;DHT22;4511;50.890;8.054;2023-02-01T00:55:24;4.60;99.90
8953;DHT22;4511;50.890;8.054;2023-02-01T00:57:50;4.60;99.90
8953;DHT22;4511;50.890;8.054;2023-02-01T01:00:17;4.60;99.90
8953;DHT22;4511;50.890;8.054;2023-02-01T01:02:44;4.70;99.90
8953;DHT22;4511;50.890;8.054;2023-02-01T01:05:10;4.70;99.90
8953;DHT22;4511;50.890;8.054;2023-02-01T01:07:37;4.70;99.90
8953;DHT22;4511;50.890;8.054;2023-02-01T01:10:04;4.70;99.90
8953;DHT22;4511;50.890;8.054;2023-02-01T01:12:33;4.70;99.90
8953;DHT22;4511;50.890;8.054;2023-02-01T01:14:59;4.70;99.90
8953;DHT22;4511;50.890;8.054;2023-02-01T01:17:26;4.70;99.90
8953;DHT22;4511;50.890;8.054;2023-02-01T01:19:52;4.70;99.90
8953;DHT22;4511;50.890;8.054;2023-02-01T01:22:19;4.70;99.90
8953;DHT22;4511;50.890;8.054;2023-02-01T01:24:45;4.70;99.90
8953;DHT22;4511;50.890;8.054;2023-02-01T01:27:12;4.70;99.90
8953;DHT22;4511;50.890;8.054;2023-02-01T01:29:40;4.70;99.90
8953;DHT22;4511;50.890;8.054;2023-02-01T01:32:07;4.70;99.90
8953;DHT22;4511;50.890;8.054;2023-02-01T01:34:33;4.70;99.90
8953;DHT22;4511;50.890;8.054;2023-02-01T01:37:00;4.70;99.90
8953;DHT22;4511;50.890;8.054;2023-02-01T01:39:26;4.70;99.90
8953;DHT22;4511;50.890;8.054;2023-02-01T01:41:53;4.70;99.90
8953;DHT22;4511;50.890;8.054;2023-02-01T01:47:05;4.70;99.90
8953;DHT22;4511;50.890;8.054;2023-02-01T01:49:32;4.70;99.90
8953;DHT22;4511;50.890;8.054;2023-02-01T01:52:00;4.70;99.90
8953;DHT22;4511;50.890;8.054;2023-02-01T01:54:27;4.70;99.90
8953;DHT22;4511;50.890;8.054;2023-02-01T01:56:56;4.70;99.90
8953;DHT22;4511;50.890;8.054;2023-02-01T01:59:24;4.70;99.90
8953;DHT22;4511;50.890;8.054;2023-02-01T02:01:52;4.70;99.90
8953;DHT22;4511;50.890;8.054;2023-02-01T02:04:21;4.70;99.90
8953;DHT22;4511;50.890;8.054;2023-02-01T02:06:49;4.60;99.90
8953;DHT22;4511;50.890;8.054;2023-02-01T02:09:17;4.70;99.90
8953;DHT22;4511;50.890;8.054;2023-02-01T02:11:44;4.70;99.90
8953;DHT22;4511;50.890;8.054;2023-02-01T02:14:11;4.70;99.90
8953;DHT22;4511;50.890;8.054;2023-02-01T02:19:32;4.70;99.90
8953;DHT22;4511;50.890;8.054;2023-02-01T02:22:14;4.70;99.90
8953;DHT22;4511;50.890;8.054;2023-02-01T02:24:56;4.70;99.90
8953;DHT22;4511;50.890;8.054;2023-02-01T02:27:29;4.70;99.90
8953;DHT22;4511;50.890;8.054;2023-02-01T02:32:59;4.70;99.90
8953;DHT22;4511;50.890;8.054;2023-02-01T02:35:33;4.70;99.90
8953;DHT22;4511;50.890;8.054;2023-02-01T02:38:05;4.60;99.90
8953;DHT22;4511;50.890;8.054;2023-02-01T02:40:34;4.70;99.90
8953;DHT22;4511;50.890;8.054;2023-02-01T02:43:04;4.70;99.90
8953;DHT22;4511;50.890;8.054;2023-02-01T02:45:50;4.60;99.90
8953;DHT22;4511;50.890;8.054;2023-02-01T02:48:37;4.60;99.90
8953;DHT22;4511;50.890;8.054;2023-02-01T02:51:11;4.60;99.90
8953;DHT22;4511;50.890;8.054;2023-02-01T02:53:57;4.60;99.90
8953;DHT22;4511;50.890;8.054;2023-02-01T02:56:41;4.60;99.90
8953;DHT22;4511;50.890;8.054;2023-02-01T02:59:26;4.60;99.90
8953;DHT22;4511;50.890;8.054;2023-02-01T03:02:11;4.60;99.90
8953;DHT22;4511;50.890;8.054;2023-02-01T03:04:56;4.60;99.90
8953;DHT22;4511;50.890;8.054;2023-02-01T03:10:10;4.50;99.90
8953;DHT22;4511;50.890;8.054;2023-02-01T03:12:39;4.50;99.90
8953;DHT22;4511;50.890;8.054;2023-02-01T03:15:23;4.50;99.90
8953;DHT22;4511;50.890;8.054;2023-02-01T03:17:52;4.50;99.90
8953;DHT22;4511;50.890;8.054;2023-02-01T03:20:21;4.50;99.90
8953;DHT22;4511;50.890;8.054;2023-02-01T03:22:48;4.50;99.90
8953;DHT22;4511;50.890;8.054;2023-02-01T03:25:18;4.50;99.90
8953;DHT22;4511;50.890;8.054;2023-02-01T03:27:48;4.50;99.90
8953;DHT22;4511;50.890;8.054;2023-02-01T03:30:16;4.40;99.90
8953;DHT22;4511;50.890;8.054;2023-02-01T03:32:45;4.40;99.90
8953;DHT22;4511;50.890;8.054;2023-02-01T03:35:26;4.40;99.90
8953;DHT22;4511;50.890;8.054;2023-02-01T03:37:54;4.40;99.90
8953;DHT22;4511;50.890;8.054;2023-02-01T03:40:24;4.40;99.90
8953;DHT22;4511;50.890;8.054;2023-02-01T03:42:53;4.40;99.90
8953;DHT22;4511;50.890;8.054;2023-02-01T03:45:22;4.30;99.90
8953;DHT22;4511;50.890;8.054;2023-02-01T03:47:51;4.30;99.90
8953;DHT22;4511;50.890;8.054;2023-02-01T03:50:19;4.30;99.90
8953;DHT22;4511;50.890;8.054;2023-02-01T03:52:48;4.30;99.90
8953;DHT22;4511;50.890;8.054;2023-02-01T03:55:17;4.30;99.90
8953;DHT22;4511;50.890;8.054;2023-02-01T03:57:49;4.30;99.90
8953;DHT22;4511;50.890;8.054;2023-02-01T04:00:18;4.30;99.90
8953;DHT22;4511;50.890;8.054;2023-02-01T04:02:47;4.20;99.90
8953;DHT22;4511;50.890;8.054;2023-02-01T04:05:13;4.20;99.90
8953;DHT22;4511;50.890;8.054;2023-02-01T04:07:40;4.20;99.90
8953;DHT22;4511;50.890;8.054;2023-02-01T04:10:07;4.20;99.90
8953;DHT22;4511;50.890;8.054;2023-02-01T04:12:34;4.20;99.90
8953;DHT22;4511;50.890;8.054;2023-02-01T04:15:02;4.20;99.90
8953;DHT22;4511;50.890;8.054;2023-02-01T04:17:29;4.20;99.90
8953;DHT22;4511;50.890;8.054;2023-02-01T04:19:55;4.20;99.90
8953;DHT22;4511;50.890;8.054;2023-02-01T04:22:22;4.20;99.90
8953;DHT22;4511;50.890;8.054;2023-02-01T04:24:49;4.20;99.90
8953;DHT22;4511;50.890;8.054;2023-02-01T04:27:15;4.10;99.90
8953;DHT22;4511;50.890;8.054;2023-02-01T04:29:42;4.10;99.90
8953;DHT22;4511;50.890;8.054;2023-02-01T04:32:11;4.10;99.90
8953;DHT22;4511;50.890;8.054;2023-02-01T04:34:38;4.10;99.90
8953;DHT22;4511;50.890;8.054;2023-02-01T04:37:05;4.10;99.90
8953;DHT22;4511;50.890;8.054;2023-02-01T04:39:31;4.10;99.90
8953;DHT22;4511;50.890;8.054;2023-02-01T04:41:58;4.10;99.90
8953;DHT22;4511;50.890;8.054;2023-02-01T04:44:24;4.10;99.90
8953;DHT22;4511;50.890;8.054;2023-02-01T04:46:51;4.10;99.90
8953;DHT22;4511;50.890;8.054;2023-02-01T04:49:19;4.10;99.90
8953;DHT22;4511;50.890;8.054;2023-02-01T04:51:46;4.00;99.90
8953;DHT22;4511;50.890;8.054;2023-02-01T04:54:13;4.00;99.90
8953;DHT22;4511;50.890;8.054;2023-02-01T04:56:40;4.00;99.90
8953;DHT22;4511;50.890;8.054;2023-02-01T04:59:06;4.00;99.90
8953;DHT22;4511;50.890;8.054;2023-02-01T05:01:33;4.00;99.90
8953;DHT22;4511;50.890;8.054;2023-02-01T05:04:00;4.00;99.90
8953;DHT22;4511;50.890;8.054;2023-02-01T05:06:27;4.00;99.90
8953;DHT22;4511;50.890;8.054;2023-02-01T05:08:54;4.00;99.90
8953;DHT22;4511;50.890;8.054;2023-02-01T05:11:21;4.00;99.90
8953;DHT22;4511;50.890;8.054;2023-02-01T05:14:05;4.00;99.90
8953;DHT22;4511;50.890;8.054;2023-02-01T05:16:31;4.00;99.90
8953;DHT22;4511;50.890;8.054;2023-02-01T05:18:58;4.00;99.90
8953;DHT22;4511;50.890;8.054;2023-02-01T05:21:24;4.00;99.90
8953;DHT22;4511;50.890;8.054;2023-02-01T05:23:52;3.90;99.90
8953;DHT22;4511;50.890;8.054;2023-02-01T05:26:38;3.90;99.90
8953;DHT22;4511;50.890;8.054;2023-02-01T05:29:05;3.90;99.90
8953;DHT22;4511;50.890;8.054;2023-02-01T05:31:32;3.90;99.90
8953;DHT22;4511;50.890;8.054;2023-02-01T05:33:59;4.00;99.90
8953;DHT22;4511;50.890;8.054;2023-02-01T05:36:25;4.00;99.90
8953;DHT22;4511;50.890;8.054;2023-02-01T05:38:53;4.00;99.90
8953;DHT22;4511;50.890;8.054;2023-02-01T05:41:20;4.00;99.90
8953;DHT22;4511;50.890;8.054;2023-02-01T05:43:46;4.00;99.90
8953;DHT22;4511;50.890;8.054;2023-02-01T05:46:13;4.00;99.90
8953;DHT22;4511;50.890;8.054;2023-02-01T05:48:40;4.00;99.90
8953;DHT22;4511;50.890;8.054;2023-02-01T05:51:06;4.00;99.90
8953;DHT22;4511;50.890;8.054;2023-02-01T05:53:33;4.10;99.90
8953;DHT22;4511;50.890;8.054;2023-02-01T05:56:01;4.20;99.90
8953;DHT22;4511;50.890;8.054;2023-02-01T05:58:28;4.20;99.90
8953;DHT22;4511;50.890;8.054;2023-02-01T06:00:54;4.30;99.90
8953;DHT22;4511;50.890;8.054;2023-02-01T06:03:21;4.20;99.90
8953;DHT22;4511;50.890;8.054;2023-02-01T06:05:48;4.30;99.90
8953;DHT22;4511;50.890;8.054;2023-02-01T06:08:14;4.30;99.90
8953;DHT22;4511;50.890;8.054;2023-02-01T06:10:42;4.20;99.90
8953;DHT22;4511;50.890;8.054;2023-02-01T06:13:10;4.20;99.90
8953;DHT22;4511;50.890;8.054;2023-02-01T06:15:37;4.20;99.90
8953;DHT22;4511;50.890;8.054;2023-02-01T06:18:03;4.20;99.90
8953;DHT22;4511;50.890;8.054;2023-02-01T06:20:30;4.20;99.90
8953;DHT22;4511;50.890;8.054;2023-02-01T06:22:57;4.20;99.90
8953;DHT22;4511;50.890;8.054;2023-02-01T06:25:23;4.20;99.90
8953;DHT22;4511;50.890;8.054;2023-02-01T06:27:50;4.30;99.90
8953;DHT22;4511;50.890;8.054;2023-02-01T06:30:18;4.20;99.90
8953;DHT22;4511;50.890;8.054;2023-02-01T06:32:49;4.30;99.90
8953;DHT22;4511;50.890;8.054;2023-02-01T06:35:18;4.30;99.90
8953;DHT22;4511;50.890;8.054;2023-02-01T06:37:45;4.30;99.90
8953;DHT22;4511;50.890;8.054;2023-02-01T06:40:12;4.30;99.90
8953;DHT22;4511;50.890;8.054;2023-02-01T06:42:39;4.30;99.90
8953;DHT22;4511;50.890;8.054;2023-02-01T06:45:06;4.30;99.90
8953;DHT22;4511;50.890;8.054;2023-02-01T06:47:34;4.30;99.90
8953;DHT22;4511;50.890;8.054;2023-02-01T06:50:00;4.30;99.90
8953;DHT22;4511;50.890;8.054;2023-02-01T06:52:27;4.30;99.90
8953;DHT22;4511;50.890;8.054;2023-02-01T06:54:54;4.30;99.90
8953;DHT22;4511;50.890;8.054;2023-02-01T06:57:21;4.30;99.90
8953;DHT22;4511;50.890;8.054;2023-02-01T06:59:47;4.30;99.90
8953;DHT22;4511;50.890;8.054;2023-02-01T07:02:14;4.30;99.90
8953;DHT22;4511;50.890;8.054;2023-02-01T07:04:42;4.30;99.90
8953;DHT22;4511;50.890;8.054;2023-02-01T07:07:08;4.30;99.90
8953;DHT22;4511;50.890;8.054;2023-02-01T07:09:36;4.30;99.90
8953;DHT22;4511;50.890;8.054;2023-02-01T07:12:02;4.30;99.90
8953;DHT22;4511;50.890;8.054;2023-02-01T07:14:29;4.30;99.90
8953;DHT22;4511;50.890;8.054;2023-02-01T07:16:57;4.30;99.90
8953;DHT22;4511;50.890;8.054;2023-02-01T07:19:24;4.30;99.90
8953;DHT22;4511;50.890;8.054;2023-02-01T07:21:52;4.30;99.90
8953;DHT22;4511;50.890;8.054;2023-02-01T07:24:18;4.30;99.90
8953;DHT22;4511;50.890;8.054;2023-02-01T07:26:45;4.30;99.90
8953;DHT22;4511;50.890;8.054;2023-02-01T07:29:13;4.30;99.90
8953;DHT22;4511;50.890;8.054;2023-02-01T07:31:39;4.30;99.90
8953;DHT22;4511;50.890;8.054;2023-02-01T07:34:06;4.30;99.90
8953;DHT22;4511;50.890;8.054;2023-02-01T07:36:32;4.30;99.90
8953;DHT22;4511;50.890;8.054;2023-02-01T07:39:01;4.30;99.90
8953;DHT22;4511;50.890;8.054;2023-02-01T07:41:27;4.30;99.90
8953;DHT22;4511;50.890;8.054;2023-02-01T07:43:54;4.30;99.90
8953;DHT22;4511;50.890;8.054;2023-02-01T07:46:21;4.30;99.90
8953;DHT22;4511;50.890;8.054;2023-02-01T07:48:47;4.30;99.90
8953;DHT22;4511;50.890;8.054;2023-02-01T07:51:14;4.30;99.90
8953;DHT22;4511;50.890;8.054;2023-02-01T07:53:42;4.30;99.90
8953;DHT22;4511;50.890;8.054;2023-02-01T07:56:11;4.30;99.90
8953;DHT22;4511;50.890;8.054;2023-02-01T07:58:38;4.30;99.90
8953;DHT22;4511;50.890;8.054;2023-02-01T08:01:05;4.30;99.90
8953;DHT22;4511;50.890;8.054;2023-02-01T08:03:46;4.30;99.90
8953;DHT22;4511;50.890;8.054;2023-02-01T08:06:12;4.30;99.90
8953;DHT22;4511;50.890;8.054;2023-02-01T08:08:39;4.30;99.90
8953;DHT22;4511;50.890;8.054;2023-02-01T08:11:06;4.30;99.90
8953;DHT22;4511;50.890;8.054;2023-02-01T08:13:34;4.30;99.90
8953;DHT22;4511;50.890;8.054;2023-02-01T08:16:01;4.30;99.90
8953;DHT22;4511;50.890;8.054;2023-02-01T08:18:28;4.30;99.90
8953;DHT22;4511;50.890;8.054;2023-02-01T08:20:54;4.30;99.90
8953;DHT22;4511;50.890;8.054;2023-02-01T08:23:21;4.30;99.90
8953;DHT22;4511;50.890;8.054;2023-02-01T08:25:48;4.20;99.90
8953;DHT22;4511;50.890;8.054;2023-02-01T08:28:14;4.30;99.90
8953;DHT22;4511;50.890;8.054;2023-02-01T08:30:42;4.20;99.90
8953;DHT22;4511;50.890;8.054;2023-02-01T08:33:09;4.20;99.90
8953;DHT22;4511;50.890;8.054;2023-02-01T08:35:37;4.20;99.90
8953;DHT22;4511;50.890;8.054;2023-02-01T08:38:04;4.20;99.90
8953;DHT22;4511;50.890;8.054;2023-02-01T08:40:31;4.20;99.90
8953;DHT22;4511;50.890;8.054;2023-02-01T08:42:57;4.20;99.90
8953;DHT22;4511;50.890;8.054;2023-02-01T08:45:26;4.20;99.90
8953;DHT22;4511;50.890;8.054;2023-02-01T08:47:56;4.20;99.90
8953;DHT22;4511;50.890;8.054;2023-02-01T08:50:23;4.20;99.90
8953;DHT22;4511;50.890;8.054;2023-02-01T08:52:49;4.20;99.90
8953;DHT22;4511;50.890;8.054;2023-02-01T08:55:16;4.20;99.90
8953;DHT22;4511;50.890;8.054;2023-02-01T08:57:43;4.20;99.90
8953;DHT22;4511;50.890;8.054;2023-02-01T09:00:11;4.20;99.90
8953;DHT22;4511;50.890;8.054;2023-02-01T09:02:38;4.20;99.90
8953;DHT22;4511;50.890;8.054;2023-02-01T09:05:06;4.20;99.90
8953;DHT22;4511;50.890;8.054;2023-02-01T09:07:33;4.20;99.90
8953;DHT22;4511;50.890;8.054;2023-02-01T09:09:59;4.20;99.90
8953;DHT22;4511;50.890;8.054;2023-02-01T09:12:27;4.20;99.90
8953;DHT22;4511;50.890;8.054;2023-02-01T09:14:53;4.30;99.90
8953;DHT22;4511;50.890;8.054;2023-02-01T09:17:20;4.30;99.90
8953;DHT22;4511;50.890;8.054;2023-02-01T09:19:46;4.30;99.90
8953;DHT22;4511;50.890;8.054;2023-02-01T09:22:15;4.20;99.90
8953;DHT22;4511;50.890;8.054;2023-02-01T09:24:42;4.30;99.90
8953;DHT22;4511;50.890;8.054;2023-02-01T09:27:08;4.30;99.90
8953;DHT22;4511;50.890;8.054;2023-02-01T09:29:35;4.20;99.90
8953;DHT22;4511;50.890;8.054;2023-02-01T09:32:02;4.30;99.90
8953;DHT22;4511;50.890;8.054;2023-02-01T09:34:29;4.20;99.90
8953;DHT22;4511;50.890;8.054;2023-02-01T09:36:55;4.30;99.90
8953;DHT22;4511;50.890;8.054;2023-02-01T09:39:23;4.30;99.90
8953;DHT22;4511;50.890;8.054;2023-02-01T09:41:52;4.30;99.90
8953;DHT22;4511;50.890;8.054;2023-02-01T09:44:23;4.30;99.90
8953;DHT22;4511;50.890;8.054;2023-02-01T09:46:55;4.30;99.90
8953;DHT22;4511;50.890;8.054;2023-02-01T09:49:23;4.30;99.90
8953;DHT22;4511;50.890;8.054;2023-02-01T09:51:51;4.30;99.90
8953;DHT22;4511;50.890;8.054;2023-02-01T09:54:19;4.30;99.90
8953;DHT22;4511;50.890;8.054;2023-02-01T09:56:48;4.30;99.90
8953;DHT22;4511;50.890;8.054;2023-02-01T09:59:20;4.30;99.90
8953;DHT22;4511;50.890;8.054;2023-02-01T10:01:49;4.30;99.90
8953;DHT22;4511;50.890;8.054;2023-02-01T10:04:16;4.30;99.90
8953;DHT22;4511;50.890;8.054;2023-02-01T10:06:47;4.30;99.90
8953;DHT22;4511;50.890;8.054;2023-02-01T10:09:19;4.30;99.90
8953;DHT22;4511;50.890;8.054;2023-02-01T10:11:50;4.30;99.90
8953;DHT22;4511;50.890;8.054;2023-02-01T10:14:28;4.30;99.90
8953;DHT22;4511;50.890;8.054;2023-02-01T10:17:01;4.30;99.90
8953;DHT22;4511;50.890;8.054;2023-02-01T10:19:33;4.40;99.90
8953;DHT22;4511;50.890;8.054;2023-02-01T10:22:02;4.40;99.90
8953;DHT22;4511;50.890;8.054;2023-02-01T10:24:34;4.40;99.90
8953;DHT22;4511;50.890;8.054;2023-02-01T10:27:07;4.30;99.90
8953;DHT22;4511;50.890;8.054;2023-02-01T10:29:36;4.40;99.90
8953;DHT22;4511;50.890;8.054;2023-02-01T10:32:07;4.40;99.90
8953;DHT22;4511;50.890;8.054;2023-02-01T10:34:36;4.40;99.90
8953;DHT22;4511;50.890;8.054;2023-02-01T10:37:08;4.40;99.90
8953;DHT22;4511;50.890;8.054;2023-02-01T10:39:36;4.40;99.90
8953;DHT22;4511;50.890;8.054;2023-02-01T10:42:04;4.40;99.90
8953;DHT22;4511;50.890;8.054;2023-02-01T10:44:30;4.40;99.90
8953;DHT22;4511;50.890;8.054;2023-02-01T10:46:58;4.40;99.90
8953;DHT22;4511;50.890;8.054;2023-02-01T10:49:26;4.40;99.90
8953;DHT22;4511;50.890;8.054;2023-02-01T10:51:57;4.50;99.90
8953;DHT22;4511;50.890;8.054;2023-02-01T10:54:31;4.50;99.90
8953;DHT22;4511;50.890;8.054;2023-02-01T10:56:58;4.50;99.90
8953;DHT22;4511;50.890;8.054;2023-02-01T10:59:27;4.50;99.90
8953;DHT22;4511;50.890;8.054;2023-02-01T11:01:58;4.50;99.90
8953;DHT22;4511;50.890;8.054;2023-02-01T11:04:25;4.50;99.90
8953;DHT22;4511;50.890;8.054;2023-02-01T11:06:53;4.60;99.90
8953;DHT22;4511;50.890;8.054;2023-02-01T11:09:20;4.60;99.90
8953;DHT22;4511;50.890;8.054;2023-02-01T11:11:54;4.60;99.90
8953;DHT22;4511;50.890;8.054;2023-02-01T11:14:27;4.60;99.90
8953;DHT22;4511;50.890;8.054;2023-02-01T11:16:55;4.60;99.90
8953;DHT22;4511;50.890;8.054;2023-02-01T11:19:21;4.70;99.90
8953;DHT22;4511;50.890;8.054;2023-02-01T11:21:48;4.60;99.90
8953;DHT22;4511;50.890;8.054;2023-02-01T11:24:16;4.60;99.90
8953;DHT22;4511;50.890;8.054;2023-02-01T11:26:45;4.70;99.90
8953;DHT22;4511;50.890;8.054;2023-02-01T11:29:12;4.60;99.90
8953;DHT22;4511;50.890;8.054;2023-02-01T11:31:41;4.70;99.90
8953;DHT22;4511;50.890;8.054;2023-02-01T11:34:08;4.70;99.90
8953;DHT22;4511;50.890;8.054;2023-02-01T11:36:38;4.70;99.90
8953;DHT22;4511;50.890;8.054;2023-02-01T11:39:09;4.80;99.90
8953;DHT22;4511;50.890;8.054;2023-02-01T11:41:40;4.80;99.90
8953;DHT22;4511;50.890;8.054;2023-02-01T11:44:15;4.90;99.90
8953;DHT22;4511;50.890;8.054;2023-02-01T11:46:44;4.80;99.90
8953;DHT22;4511;50.890;8.054;2023-02-01T11:49:14;4.80;99.90
8953;DHT22;4511;50.890;8.054;2023-02-01T11:51:47;4.80;99.90
8953;DHT22;4511;50.890;8.054;2023-02-01T11:54:21;4.90;99.90
8953;DHT22;4511;50.890;8.054;2023-02-01T11:56:54;4.90;99.90
8953;DHT22;4511;50.890;8.054;2023-02-01T11:59:28;4.90;99.90
8953;DHT22;4511;50.890;8.054;2023-02-01T12:04:48;4.90;99.90
8953;DHT22;4511;50.890;8.054;2023-02-01T12:07:18;4.90;99.90
8953;DHT22;4511;50.890;8.054;2023-02-01T12:09:52;5.00;99.90
8953;DHT22;4511;50.890;8.054;2023-02-01T12:12:22;5.00;99.90
8953;DHT22;4511;50.890;8.054;2023-02-01T12:15:02;4.90;99.90
8953;DHT22;4511;50.890;8.054;2023-02-01T12:17:41;4.90;99.90
8953;DHT22;4511;50.890;8.054;2023-02-01T12:20:20;5.00;99.90
8953;DHT22;4511;50.890;8.054;2023-02-01T12:22:52;5.00;99.90
8953;DHT22;4511;50.890;8.054;2023-02-01T12:25:26;5.00;99.90
8953;DHT22;4511;50.890;8.054;2023-02-01T12:27:58;5.20;99.90
8953;DHT22;4511;50.890;8.054;2023-02-01T12:30:38;5.20;99.90
8953;DHT22;4511;50.890;8.054;2023-02-01T12:33:10;5.20;99.90
8953;DHT22;4511;50.890;8.054;2023-02-01T12:35:47;5.20;99.90
8953;DHT22;4511;50.890;8.054;2023-02-01T12:38:19;5.20;99.90
8953;DHT22;4511;50.890;8.054;2023-02-01T12:40:54;5.10;99.90
8953;DHT22;4511;50.890;8.054;2023-02-01T12:43:25;5.10;99.90
8953;DHT22;4511;50.890;8.054;2023-02-01T12:45:55;5.20;99.90
8953;DHT22;4511;50.890;8.054;2023-02-01T12:48:25;5.20;99.90
8953;DHT22;4511;50.890;8.054;2023-02-01T12:50:55;5.20;99.90
8953;DHT22;4511;50.890;8.054;2023-02-01T12:53:25;5.20;99.90
8953;DHT22;4511;50.890;8.054;2023-02-01T12:55:54;5.20;99.90
8953;DHT22;4511;50.890;8.054;2023-02-01T12:58:23;5.10;99.90
8953;DHT22;4511;50.890;8.054;2023-02-01T13:00:51;5.10;99.90
8953;DHT22;4511;50.890;8.054;2023-02-01T13:03:24;5.10;99.90
8953;DHT22;4511;50.890;8.054;2023-02-01T13:06:01;5.10;99.90
8953;DHT22;4511;50.890;8.054;2023-02-01T13:08:34;5.10;99.90
8953;DHT22;4511;50.890;8.054;2023-02-01T13:11:03;5.10;99.90
8953;DHT22;4511;50.890;8.054;2023-02-01T13:13:31;5.00;99.90
8953;DHT22;4511;50.890;8.054;2023-02-01T13:16:01;5.00;99.90
8953;DHT22;4511;50.890;8.054;2023-02-01T13:18:32;4.90;99.90
8953;DHT22;4511;50.890;8.054;2023-02-01T13:21:02;4.90;99.90
8953;DHT22;4511;50.890;8.054;2023-02-01T13:23:31;4.90;99.90
8953;DHT22;4511;50.890;8.054;2023-02-01T13:26:00;4.90;99.90
8953;DHT22;4511;50.890;8.054;2023-02-01T13:28:27;4.90;99.90
8953;DHT22;4511;50.890;8.054;2023-02-01T13:30:59;4.90;99.90
8953;DHT22;4511;50.890;8.054;2023-02-01T13:33:36;4.90;99.90
8953;DHT22;4511;50.890;8.054;2023-02-01T13:41:29;4.90;99.90
8953;DHT22;4511;50.890;8.054;2023-02-01T13:43:58;4.90;99.90
8953;DHT22;4511;50.890;8.054;2023-02-01T13:46:26;4.90;99.90
8953;DHT22;4511;50.890;8.054;2023-02-01T13:48:54;4.90;99.90
8953;DHT22;4511;50.890;8.054;2023-02-01T13:51:32;4.80;99.90
8953;DHT22;4511;50.890;8.054;2023-02-01T13:53:58;4.80;99.90
8953;DHT22;4511;50.890;8.054;2023-02-01T13:56:25;4.80;99.90
8953;DHT22;4511;50.890;8.054;2023-02-01T13:58:56;4.80;99.90
8953;DHT22;4511;50.890;8.054;2023-02-01T14:01:33;4.80;99.90
8953;DHT22;4511;50.890;8.054;2023-02-01T14:04:01;4.70;99.90
8953;DHT22;4511;50.890;8.054;2023-02-01T14:09:17;4.60;99.90
8953;DHT22;4511;50.890;8.054;2023-02-01T14:11:48;4.60;99.90
8953;DHT22;4511;50.890;8.054;2023-02-01T14:22:52;4.50;99.90
8953;DHT22;4511;50.890;8.054;2023-02-01T14:25:31;4.50;99.90
8953;DHT22;4511;50.890;8.054;2023-02-01T14:27:58;4.50;99.90
8953;DHT22;4511;50.890;8.054;2023-02-01T14:30:25;4.50;99.90
8953;DHT22;4511;50.890;8.054;2023-02-01T14:32:51;4.50;99.90
8953;DHT22;4511;50.890;8.054;2023-02-01T14:35:19;4.50;99.90
8953;DHT22;4511;50.890;8.054;2023-02-01T14:37:46;4.50;99.90
8953;DHT22;4511;50.890;8.054;2023-02-01T14:40:19;4.50;99.90
8953;DHT22;4511;50.890;8.054;2023-02-01T14:42:47;4.40;99.90
8953;DHT22;4511;50.890;8.054;2023-02-01T14:50:42;4.50;99.90
8953;DHT22;4511;50.890;8.054;2023-02-01T14:53:14;4.50;99.90
8953;DHT22;4511;50.890;8.054;2023-02-01T14:55:46;4.50;99.90
8953;DHT22;4511;50.890;8.054;2023-02-01T14:58:15;4.50;99.90
8953;DHT22;4511;50.890;8.054;2023-02-01T15:00:47;4.50;99.90
8953;DHT22;4511;50.890;8.054;2023-02-01T15:03:19;4.50;99.90
8953;DHT22;4511;50.890;8.054;2023-02-01T15:05:54;4.50;99.90
8953;DHT22;4511;50.890;8.054;2023-02-01T15:08:22;4.50;99.90
8953;DHT22;4511;50.890;8.054;2023-02-01T15:10:51;4.50;99.90
8953;DHT22;4511;50.890;8.054;2023-02-01T15:13:20;4.60;99.90
8953;DHT22;4511;50.890;8.054;2023-02-01T15:18:28;4.60;99.90
8953;DHT22;4511;50.890;8.054;2023-02-01T15:20:58;4.60;99.90
8953;DHT22;4511;50.890;8.054;2023-02-01T15:23:25;4.60;99.90
8953;DHT22;4511;50.890;8.054;2023-02-01T15:25:54;4.60;99.90
8953;DHT22;4511;50.890;8.054;2023-02-01T15:28:21;4.60;99.90
8953;DHT22;4511;50.890;8.054;2023-02-01T15:30:51;4.60;99.90
8953;DHT22;4511;50.890;8.054;2023-02-01T15:33:18;4.60;99.90
8953;DHT22;4511;50.890;8.054;2023-02-01T15:35:46;4.60;99.90
8953;DHT22;4511;50.890;8.054;2023-02-01T15:38:33;4.60;99.90
8953;DHT22;4511;50.890;8.054;2023-02-01T15:41:02;4.70;99.90
8953;DHT22;4511;50.890;8.054;2023-02-01T15:43:31;4.70;99.90
8953;DHT22;4511;50.890;8.054;2023-02-01T15:45:58;4.70;99.90
8953;DHT22;4511;50.890;8.054;2023-02-01T15:48:26;4.70;99.90
8953;DHT22;4511;50.890;8.054;2023-02-01T15:50:53;4.80;99.90
8953;DHT22;4511;50.890;8.054;2023-02-01T15:53:22;4.80;99.90
8953;DHT22;4511;50.890;8.054;2023-02-01T15:55:51;4.80;99.90
8953;DHT22;4511;50.890;8.054;2023-02-01T15:58:20;4.80;99.90
8953;DHT22;4511;50.890;8.054;2023-02-01T16:00:47;4.70;99.90
8953;DHT22;4511;50.890;8.054;2023-02-01T16:03:26;4.70;99.90
8953;DHT22;4511;50.890;8.054;2023-02-01T16:05:54;4.80;99.90
8953;DHT22;4511;50.890;8.054;2023-02-01T16:08:22;4.70;99.90
8953;DHT22;4511;50.890;8.054;2023-02-01T16:10:50;4.70;99.90
8953;DHT22;4511;50.890;8.054;2023-02-01T16:13:17;4.70;99.90
8953;DHT22;4511;50.890;8.054;2023-02-01T16:15:46;4.70;99.90
8953;DHT22;4511;50.890;8.054;2023-02-01T16:18:14;4.70;99.90
8953;DHT22;4511;50.890;8.054;2023-02-01T16:20:41;4.70;99.90
8953;DHT22;4511;50.890;8.054;2023-02-01T16:23:08;4.70;99.90
8953;DHT22;4511;50.890;8.054;2023-02-01T16:25:35;4.70;99.90
8953;DHT22;4511;50.890;8.054;2023-02-01T16:28:03;4.70;99.90
8953;DHT22;4511;50.890;8.054;2023-02-01T16:30:30;4.70;99.90
8953;DHT22;4511;50.890;8.054;2023-02-01T16:32:58;4.70;99.90
8953;DHT22;4511;50.890;8.054;2023-02-01T16:35:28;4.80;99.90
8953;DHT22;4511;50.890;8.054;2023-02-01T16:37:56;4.80;99.90
8953;DHT22;4511;50.890;8.054;2023-02-01T16:40:24;4.70;99.90
8953;DHT22;4511;50.890;8.054;2023-02-01T16:42:51;4.70;99.90
8953;DHT22;4511;50.890;8.054;2023-02-01T16:45:20;4.80;99.90
8953;DHT22;4511;50.890;8.054;2023-02-01T16:47:47;4.70;99.90
8953;DHT22;4511;50.890;8.054;2023-02-01T16:50:18;4.80;99.90
8953;DHT22;4511;50.890;8.054;2023-02-01T16:52:46;4.80;99.90
8953;DHT22;4511;50.890;8.054;2023-02-01T16:55:13;4.80;99.90
8953;DHT22;4511;50.890;8.054;2023-02-01T16:57:41;4.80;99.90
8953;DHT22;4511;50.890;8.054;2023-02-01T17:00:08;4.80;99.90
8953;DHT22;4511;50.890;8.054;2023-02-01T17:02:34;4.80;99.90
8953;DHT22;4511;50.890;8.054;2023-02-01T17:05:01;4.80;99.90
8953;DHT22;4511;50.890;8.054;2023-02-01T17:07:29;4.80;99.90